createdAt,value
2023-05-08T00:01:31.874Z,12.73
2023-05-08T00:03:59.626Z,12.57
2023-05-08T00:06:29.534Z,11.88
2023-05-08T00:08:56.958Z,11.61
2023-05-08T00:11:24.469Z,11.23
2023-05-08T00:13:52.192Z,11.04
2023-05-08T00:16:19.388Z,10.43
2023-05-08T00:18:46.856Z,10.32
2023-05-08T00:21:13.956Z,10.01
2023-05-08T00:23:41.542Z,9.42
2023-05-08T00:26:09.016Z,9.50
2023-05-08T00:28:36.126Z,9.16
2023-05-08T00:31:03.473Z,8.71
2023-05-08T00:33:31.333Z,8.38
2023-05-08T00:36:04.773Z,8.33
2023-05-08T00:38:32.826Z,7.80
2023-05-08T00:41:00.113Z,7.40
2023-05-08T00:43:30.445Z,7.24
2023-05-08T00:45:59.881Z,6.80
2023-05-08T00:48:32.688Z,6.70
2023-05-08T00:50:59.928Z,6.63
2023-05-08T00:53:27.284Z,7.02
2023-05-08T00:55:54.494Z,6.54
2023-05-08T00:58:22.058Z,6.16
2023-05-08T01:00:49.708Z,6.11
2023-05-08T01:03:17.188Z,5.99
2023-05-08T01:05:44.635Z,6.02
2023-05-08T01:08:12.006Z,6.04
2023-05-08T01:11:02.658Z,5.53
2023-05-08T01:13:54.268Z,5.06
2023-05-08T01:16:27.546Z,5.12
2023-05-08T01:19:21.767Z,5.02
2023-05-08T01:22:05.557Z,4.84
2023-05-08T01:24:57.618Z,4.75
2023-05-08T01:27:42.299Z,4.80
2023-05-08T01:30:28.490Z,4.45
2023-05-08T01:32:57.884Z,4.74
2023-05-08T01:35:37.416Z,4.58
2023-05-08T01:38:15.685Z,4.86
2023-05-08T01:40:57.086Z,4.84
2023-05-08T01:43:30.280Z,4.89
2023-05-08T01:45:58.046Z,4.77
2023-05-08T01:48:32.503Z,4.55
2023-05-08T01:51:07.308Z,5.01
2023-05-08T01:53:45.398Z,4.67
2023-05-08T01:56:15.344Z,5.33
2023-05-08T01:58:43.081Z,4.93
2023-05-08T02:01:12.739Z,5.15
2023-05-08T02:03:41.571Z,5.48
2023-05-08T02:06:09.526Z,5.77
2023-05-08T02:08:37.208Z,5.78
2023-05-08T02:11:04.530Z,5.92
2023-05-08T02:13:32.400Z,6.53
2023-05-08T02:16:00.136Z,6.45
2023-05-08T02:18:27.104Z,6.95
2023-05-08T02:20:56.450Z,7.13
2023-05-08T02:23:24.448Z,7.11
2023-05-08T02:25:51.607Z,7.40
2023-05-08T02:28:19.382Z,7.97
2023-05-08T02:30:46.636Z,8.27
2023-05-08T02:33:14.109Z,8.72
2023-05-08T02:35:42.728Z,8.93
2023-05-08T02:38:10.653Z,8.75
2023-05-08T02:40:40.203Z,9.25
2023-05-08T02:43:08.112Z,9.32
2023-05-08T02:45:58.490Z,8.75
2023-05-08T02:48:34.601Z,8.77
2023-05-08T02:51:06.060Z,9.62
2023-05-08T02:53:37.402Z,9.73
2023-05-08T02:56:16.461Z,9.98
2023-05-08T02:59:14.830Z,9.76
2023-05-08T03:01:47.386Z,9.73
2023-05-08T03:04:23.180Z,9.50
2023-05-08T03:06:50.486Z,10.09
2023-05-08T03:09:21.197Z,10.35
2023-05-08T03:11:49.966Z,10.05
2023-05-08T03:14:20.682Z,10.52
2023-05-08T03:16:48.139Z,10.62
2023-05-08T03:19:21.775Z,11.28
2023-05-08T03:21:51.417Z,11.28
2023-05-08T03:24:18.853Z,11.49
2023-05-08T03:26:47.270Z,12.12
2023-05-08T03:29:14.929Z,11.83
2023-05-08T03:31:42.557Z,12.08
2023-05-08T03:34:10.067Z,12.35
2023-05-08T03:36:37.443Z,12.39
2023-05-08T03:39:04.791Z,12.93
2023-05-08T03:41:32.347Z,12.54
2023-05-08T03:43:59.897Z,13.16
2023-05-08T03:46:26.954Z,12.94
2023-05-08T03:48:55.997Z,12.92
2023-05-08T03:51:23.446Z,12.70
2023-05-08T03:53:51.574Z,13.11
2023-05-08T03:56:19.332Z,12.92
2023-05-08T03:59:00.985Z,12.53
2023-05-08T04:01:52.010Z,12.47
2023-05-08T04:04:33.049Z,12.93
2023-05-08T04:07:06.236Z,12.84
2023-05-08T04:10:25.490Z,12.66
2023-05-08T04:12:52.905Z,12.79
2023-05-08T04:15:23.116Z,12.73
2023-05-08T04:17:57.458Z,12.83
2023-05-08T04:20:27.645Z,12.95
2023-05-08T04:22:55.752Z,12.69
2023-05-08T04:25:24.442Z,12.87
2023-05-08T04:27:52.887Z,13.16
2023-05-08T04:30:22.089Z,13.46
2023-05-08T04:32:50.302Z,13.37
2023-05-08T04:35:17.851Z,12.87
2023-05-08T04:37:46.084Z,13.47
2023-05-08T04:40:13.585Z,13.92
2023-05-08T04:42:43.691Z,13.92
2023-05-08T04:45:11.577Z,13.78
2023-05-08T04:47:39.571Z,14.05
2023-05-08T04:50:07.391Z,14.09
2023-05-08T04:52:35.880Z,14.27
2023-05-08T04:55:03.331Z,14.36
2023-05-08T04:57:33.973Z,14.51
2023-05-08T05:00:01.662Z,14.79
2023-05-08T05:02:30.753Z,15.30
2023-05-08T05:05:01.184Z,15.64
2023-05-08T05:07:29.611Z,15.33
2023-05-08T05:09:57.083Z,15.26
2023-05-08T05:12:24.494Z,15.62
2023-05-08T05:14:52.459Z,16.05
2023-05-08T05:17:19.915Z,16.09
2023-05-08T05:19:47.411Z,15.70
2023-05-08T05:22:14.828Z,16.09
2023-05-08T05:24:42.181Z,15.96
2023-05-08T05:27:09.596Z,16.37
2023-05-08T05:29:36.748Z,16.34
2023-05-08T05:32:04.165Z,16.79
2023-05-08T05:34:31.497Z,16.39
2023-05-08T05:36:58.853Z,16.38
2023-05-08T05:39:27.165Z,15.96
2023-05-08T05:41:54.663Z,16.06
2023-05-08T05:44:22.014Z,15.94
2023-05-08T05:46:49.870Z,15.38
2023-05-08T05:49:17.532Z,15.07
2023-05-08T05:51:44.658Z,15.65
2023-05-08T05:54:12.052Z,16.39
2023-05-08T05:56:39.528Z,15.93
2023-05-08T05:59:07.336Z,16.17
2023-05-08T06:01:34.689Z,16.46
2023-05-08T06:04:02.426Z,16.54
2023-05-08T06:06:29.668Z,15.94
2023-05-08T06:08:57.560Z,15.35
2023-05-08T06:11:24.608Z,15.13
2023-05-08T06:13:52.436Z,15.55
2023-05-08T06:16:22.882Z,15.57
2023-05-08T06:18:50.298Z,15.63
2023-05-08T06:21:17.539Z,14.52
2023-05-08T06:23:45.024Z,14.97
2023-05-08T06:26:12.104Z,14.34
2023-05-08T06:28:39.482Z,13.70
2023-05-08T06:31:06.739Z,13.75
2023-05-08T06:33:34.165Z,13.57
2023-05-08T06:36:01.493Z,13.42
2023-05-08T06:38:29.061Z,13.66
2023-05-08T06:40:56.768Z,13.73
2023-05-08T06:43:24.205Z,13.64
2023-05-08T06:45:53.169Z,13.82
2023-05-08T06:48:20.511Z,13.84
2023-05-08T06:50:48.301Z,13.91
2023-05-08T06:53:15.788Z,14.08
2023-05-08T06:55:43.537Z,14.10
2023-05-08T06:58:10.792Z,14.09
2023-05-08T07:00:37.998Z,14.10
2023-05-08T07:03:05.348Z,14.20
2023-05-08T07:05:33.090Z,14.46
2023-05-08T07:08:00.311Z,14.37
2023-05-08T07:10:27.580Z,14.16
2023-05-08T07:12:55.124Z,14.28
2023-05-08T07:15:26.338Z,14.12
2023-05-08T07:17:55.126Z,14.14
2023-05-08T07:20:23.904Z,14.53
2023-05-08T07:22:51.468Z,14.30
2023-05-08T07:25:18.536Z,14.53
2023-05-08T07:27:46.188Z,14.63
2023-05-08T07:30:13.724Z,14.46
2023-05-08T07:32:41.154Z,14.10
2023-05-08T07:35:11.383Z,14.44
2023-05-08T07:37:42.026Z,14.19
2023-05-08T07:40:09.329Z,14.00
2023-05-08T07:42:43.082Z,14.34
2023-05-08T07:45:12.163Z,14.59
2023-05-08T07:47:48.131Z,13.90
2023-05-08T07:50:15.707Z,14.04
2023-05-08T07:52:43.373Z,13.70
2023-05-08T07:55:11.476Z,13.61
2023-05-08T07:57:39.860Z,13.77
2023-05-08T08:00:08.735Z,13.99
2023-05-08T08:02:42.683Z,13.67
2023-05-08T08:05:10.346Z,13.56
2023-05-08T08:07:37.998Z,13.46
2023-05-08T08:10:05.628Z,13.40
2023-05-08T08:12:32.942Z,13.57
2023-05-08T08:15:00.121Z,13.64
2023-05-08T08:17:28.889Z,14.01
2023-05-08T08:19:57.136Z,13.87
2023-05-08T08:22:25.252Z,13.86
2023-05-08T08:24:55.072Z,14.20
2023-05-08T08:27:23.319Z,13.58
2023-05-08T08:29:52.591Z,14.14
2023-05-08T08:32:26.519Z,14.29
2023-05-08T08:34:54.002Z,13.33
2023-05-08T08:37:21.530Z,13.18
2023-05-08T08:39:49.051Z,13.26
2023-05-08T08:42:16.283Z,13.37
2023-05-08T08:44:43.775Z,13.27
2023-05-08T08:47:14.003Z,13.35
2023-05-08T08:49:47.296Z,13.55
2023-05-08T08:52:43.874Z,13.62
2023-05-08T08:55:12.727Z,13.38
2023-05-08T08:57:42.020Z,13.33
2023-05-08T09:00:09.811Z,13.45
2023-05-08T09:02:37.325Z,13.34
2023-05-08T09:05:04.945Z,13.14
2023-05-08T09:07:32.412Z,13.27
2023-05-08T09:09:59.770Z,13.20
2023-05-08T09:12:26.926Z,13.42
2023-05-08T09:14:54.198Z,13.29
2023-05-08T09:17:21.860Z,13.23
2023-05-08T09:19:49.558Z,13.17
2023-05-08T09:22:17.164Z,13.22
2023-05-08T09:25:03.206Z,13.17
2023-05-08T09:27:31.371Z,13.10
2023-05-08T09:30:02.617Z,13.13
2023-05-08T09:32:31.790Z,12.68
2023-05-08T09:34:59.419Z,12.71
2023-05-08T09:37:27.161Z,12.71
2023-05-08T09:39:54.798Z,12.79
2023-05-08T09:42:23.308Z,12.75
2023-05-08T09:44:54.223Z,12.86
2023-05-08T09:47:22.830Z,12.97
2023-05-08T09:50:09.667Z,12.66
2023-05-08T09:52:38.054Z,12.64
2023-05-08T09:55:09.658Z,12.97
2023-05-08T09:57:39.113Z,12.85
2023-05-08T10:00:09.488Z,13.12
2023-05-08T10:02:41.964Z,13.24
2023-05-08T10:05:26.340Z,12.76
2023-05-08T10:07:53.842Z,12.84
2023-05-08T10:10:28.414Z,12.82
2023-05-08T10:12:56.564Z,12.88
2023-05-08T10:15:32.923Z,13.31
2023-05-08T10:18:05.120Z,13.05
2023-05-08T10:20:33.400Z,13.45
2023-05-08T10:23:00.668Z,13.07
2023-05-08T10:25:31.773Z,13.24
2023-05-08T10:28:24.541Z,13.14
2023-05-08T10:30:51.905Z,13.54
2023-05-08T10:33:22.363Z,13.79
2023-05-08T10:35:49.756Z,13.57
2023-05-08T10:38:17.356Z,13.07
2023-05-08T10:40:44.647Z,13.32
2023-05-08T10:43:11.973Z,13.54
2023-05-08T10:45:39.381Z,13.15
2023-05-08T10:48:21.765Z,13.35
2023-05-08T10:51:01.432Z,13.26
2023-05-08T10:53:49.684Z,13.87
2023-05-08T10:56:16.911Z,13.90
2023-05-08T10:58:44.454Z,13.82
2023-05-08T11:01:12.448Z,13.79
2023-05-08T11:03:46.721Z,13.54
2023-05-08T11:06:14.433Z,13.91
2023-05-08T11:08:49.833Z,13.83
2023-05-08T11:11:26.546Z,13.71
2023-05-08T11:14:06.639Z,13.64
2023-05-08T11:17:04.704Z,13.82
2023-05-08T11:19:32.202Z,13.50
2023-05-08T11:22:19.532Z,13.37
2023-05-08T11:25:01.538Z,13.16
2023-05-08T11:27:50.867Z,13.03
2023-05-08T11:30:27.992Z,13.28
2023-05-08T11:33:12.458Z,13.13
2023-05-08T11:35:58.632Z,13.66
2023-05-08T11:38:36.546Z,13.50
2023-05-08T11:41:07.733Z,13.18
2023-05-08T11:43:37.770Z,13.71
2023-05-08T11:46:06.129Z,13.07
2023-05-08T11:48:33.768Z,13.34
2023-05-08T11:51:01.146Z,13.49
2023-05-08T11:53:31.367Z,13.09
2023-05-08T11:55:59.824Z,13.24
2023-05-08T11:58:27.275Z,12.99
2023-05-08T12:00:55.003Z,13.02
2023-05-08T12:03:23.000Z,13.14
2023-05-08T12:05:50.467Z,12.85
2023-05-08T12:08:18.135Z,13.08
2023-05-08T12:10:51.895Z,13.06
2023-05-08T12:13:20.390Z,13.14
2023-05-08T12:15:49.959Z,13.15
2023-05-08T12:18:17.589Z,13.21
2023-05-08T12:20:45.574Z,12.93
2023-05-08T12:23:12.966Z,13.12
2023-05-08T12:25:40.336Z,12.87
2023-05-08T12:28:08.320Z,13.19
2023-05-08T12:30:36.995Z,13.30
2023-05-08T12:33:05.113Z,13.14
2023-05-08T12:35:32.473Z,13.12
2023-05-08T12:38:04.681Z,13.28
2023-05-08T12:40:33.725Z,13.10
2023-05-08T12:43:02.820Z,12.95
2023-05-08T12:45:32.899Z,13.55
2023-05-08T12:48:04.914Z,13.50
2023-05-08T12:50:40.132Z,14.03
2023-05-08T12:53:17.685Z,13.97
2023-05-08T12:55:52.882Z,14.17
2023-05-08T12:58:20.903Z,14.72
2023-05-08T13:00:49.679Z,14.65
2023-05-08T13:03:28.418Z,14.69
2023-05-08T13:05:57.099Z,15.02
2023-05-08T13:08:37.561Z,15.34
2023-05-08T13:11:06.358Z,15.74
2023-05-08T13:13:34.370Z,15.64
2023-05-08T13:16:06.261Z,15.65
2023-05-08T13:18:36.857Z,15.68
2023-05-08T13:21:04.532Z,15.92
2023-05-08T13:23:31.887Z,15.72
2023-05-08T13:25:59.242Z,15.76
2023-05-08T13:28:26.878Z,15.82
2023-05-08T13:30:54.261Z,15.86
2023-05-08T13:33:21.629Z,16.06
2023-05-08T13:35:48.634Z,16.23
2023-05-08T13:38:16.165Z,16.83
2023-05-08T13:40:43.249Z,16.77
2023-05-08T13:43:10.860Z,16.76
2023-05-08T13:45:37.957Z,16.83
2023-05-08T13:48:05.639Z,16.58
2023-05-08T13:50:32.964Z,16.81
2023-05-08T13:53:00.529Z,17.33
2023-05-08T13:55:27.924Z,17.34
2023-05-08T13:57:55.344Z,17.65
2023-05-08T14:00:22.715Z,17.63
2023-05-08T14:02:52.322Z,17.67
2023-05-08T14:05:20.914Z,17.91
2023-05-08T14:07:48.032Z,17.86
2023-05-08T14:10:16.894Z,18.05
2023-05-08T14:12:44.470Z,18.19
2023-05-08T14:15:12.610Z,18.08
2023-05-08T14:17:40.243Z,17.93
2023-05-08T14:20:08.680Z,18.55
2023-05-08T14:22:37.060Z,18.72
2023-05-08T14:25:04.534Z,18.71
2023-05-08T14:27:33.072Z,18.76
2023-05-08T14:30:00.477Z,18.94
2023-05-08T14:32:27.765Z,18.98
2023-05-08T14:34:55.379Z,19.71
2023-05-08T14:37:22.876Z,19.51
2023-05-08T14:39:53.736Z,19.95
2023-05-08T14:42:23.282Z,20.28
2023-05-08T14:44:51.682Z,20.44
2023-05-08T14:47:19.090Z,20.28
2023-05-08T14:49:46.840Z,20.73
2023-05-08T14:52:13.884Z,20.81
2023-05-08T14:54:41.313Z,21.11
2023-05-08T14:57:08.874Z,21.66
2023-05-08T14:59:36.116Z,21.74
2023-05-08T15:02:03.556Z,22.08
2023-05-08T15:04:30.695Z,22.60
2023-05-08T15:06:57.745Z,22.66
2023-05-08T15:09:24.869Z,23.20
2023-05-08T15:11:52.466Z,22.98
2023-05-08T15:14:19.627Z,23.72
2023-05-08T15:16:47.101Z,23.54
2023-05-08T15:19:14.338Z,23.65
2023-05-08T15:21:41.470Z,23.61
2023-05-08T15:24:08.897Z,24.14
2023-05-08T15:26:36.435Z,24.18
2023-05-08T15:29:03.476Z,23.90
2023-05-08T15:31:30.800Z,24.04
2023-05-08T15:33:57.878Z,24.22
2023-05-08T15:36:25.398Z,24.54
2023-05-08T15:38:54.224Z,24.92
2023-05-08T15:41:21.609Z,25.44
2023-05-08T15:43:48.907Z,25.48
2023-05-08T15:46:16.369Z,25.70
2023-05-08T15:48:44.192Z,25.86
2023-05-08T15:51:11.427Z,25.98
2023-05-08T15:53:38.580Z,25.72
2023-05-08T15:56:06.488Z,25.75
2023-05-08T15:58:34.335Z,26.14
2023-05-08T16:01:01.486Z,26.39
2023-05-08T16:03:28.712Z,26.66
2023-05-08T16:05:56.292Z,26.87
2023-05-08T16:08:23.666Z,26.89
2023-05-08T16:10:51.111Z,27.15
2023-05-08T16:13:18.467Z,27.37
2023-05-08T16:15:45.654Z,27.72
2023-05-08T16:18:13.336Z,27.37
2023-05-08T16:20:41.983Z,27.52
2023-05-08T16:23:09.623Z,27.49
2023-05-08T16:25:36.759Z,27.18
2023-05-08T16:28:04.478Z,27.09
2023-05-08T16:30:32.005Z,27.19
2023-05-08T16:32:59.560Z,27.50
2023-05-08T16:35:26.734Z,27.19
2023-05-08T16:37:54.203Z,27.28
2023-05-08T16:40:21.373Z,27.05
2023-05-08T16:42:48.440Z,26.97
2023-05-08T16:45:15.697Z,26.82
2023-05-08T16:47:43.320Z,26.47
2023-05-08T16:50:11.320Z,25.94
2023-05-08T16:52:38.693Z,26.16
2023-05-08T16:55:06.607Z,26.57
2023-05-08T16:57:33.784Z,26.87
2023-05-08T17:00:01.157Z,27.65
2023-05-08T17:02:28.687Z,27.75
2023-05-08T17:04:56.409Z,28.74
2023-05-08T17:07:23.763Z,29.03
2023-05-08T17:09:55.606Z,28.96
2023-05-08T17:12:23.615Z,29.61
2023-05-08T17:14:50.728Z,29.68
2023-05-08T17:17:18.251Z,29.93
2023-05-08T17:19:45.660Z,30.39
2023-05-08T17:22:13.316Z,29.94
2023-05-08T17:24:40.601Z,30.10
2023-05-08T17:27:08.312Z,30.37
2023-05-08T17:29:35.980Z,29.85
2023-05-08T17:32:03.462Z,30.44
2023-05-08T17:34:30.709Z,31.09
2023-05-08T17:36:57.810Z,30.68
2023-05-08T17:39:25.239Z,30.90
2023-05-08T17:41:53.750Z,31.02
2023-05-08T17:44:21.092Z,31.12
2023-05-08T17:46:48.569Z,31.17
2023-05-08T17:49:19.097Z,31.11
2023-05-08T17:51:46.865Z,31.45
2023-05-08T17:54:14.393Z,31.79
2023-05-08T17:56:41.796Z,32.11
2023-05-08T17:59:08.952Z,31.88
2023-05-08T18:01:35.993Z,32.60
2023-05-08T18:04:02.984Z,32.12
2023-05-08T18:06:30.240Z,31.91
2023-05-08T18:08:57.626Z,31.80
2023-05-08T18:11:25.603Z,31.47
2023-05-08T18:13:53.176Z,31.63
2023-05-08T18:16:21.493Z,31.66
2023-05-08T18:18:49.383Z,30.92
2023-05-08T18:21:16.773Z,31.61
2023-05-08T18:23:44.360Z,31.63
2023-05-08T18:26:15.437Z,31.12
2023-05-08T18:28:43.140Z,29.56
2023-05-08T18:31:10.905Z,30.69
2023-05-08T18:33:38.687Z,31.68
2023-05-08T18:36:06.957Z,31.08
2023-05-08T18:38:34.395Z,31.28
2023-05-08T18:41:05.947Z,31.65
2023-05-08T18:43:33.667Z,31.89
2023-05-08T18:46:07.948Z,31.47
2023-05-08T18:48:35.983Z,31.47
2023-05-08T18:51:03.200Z,31.13
2023-05-08T18:53:33.702Z,31.57
2023-05-08T18:56:02.653Z,31.88
2023-05-08T18:58:30.491Z,32.87
2023-05-08T19:00:58.368Z,32.69
2023-05-08T19:03:25.919Z,32.66
2023-05-08T19:05:54.675Z,32.15
2023-05-08T19:08:21.922Z,31.56
2023-05-08T19:10:48.977Z,31.60
2023-05-08T19:13:16.129Z,31.91
2023-05-08T19:15:43.301Z,31.83
2023-05-08T19:18:10.975Z,31.97
2023-05-08T19:20:38.236Z,32.27
2023-05-08T19:23:05.453Z,32.47
2023-05-08T19:25:32.957Z,32.53
2023-05-08T19:27:59.976Z,33.18
2023-05-08T19:30:27.394Z,33.49
2023-05-08T19:32:54.792Z,33.57
2023-05-08T19:35:22.160Z,33.80
2023-05-08T19:37:49.346Z,33.76
2023-05-08T19:40:17.201Z,34.03
2023-05-08T19:42:45.758Z,34.06
2023-05-08T19:45:13.627Z,33.91
2023-05-08T19:47:40.990Z,34.17
2023-05-08T19:50:11.706Z,34.43
2023-05-08T19:52:38.949Z,33.80
2023-05-08T19:55:06.774Z,33.69
2023-05-08T19:57:34.393Z,34.57
2023-05-08T20:00:01.714Z,34.95
2023-05-08T20:02:32.278Z,34.41
2023-05-08T20:07:29.362Z,34.80
2023-05-08T20:09:56.836Z,34.69
2023-05-08T20:12:24.063Z,34.74
2023-05-08T20:14:52.740Z,34.54
2023-05-08T20:17:20.210Z,34.19
2023-05-08T20:19:47.358Z,34.13
2023-05-08T20:22:14.630Z,34.98
2023-05-08T20:24:41.884Z,34.85
2023-05-08T20:27:08.958Z,34.71
2023-05-08T20:29:36.253Z,35.29
2023-05-08T20:32:03.412Z,35.17
2023-05-08T20:34:30.923Z,35.34
2023-05-08T20:36:58.842Z,35.61
2023-05-08T20:39:25.973Z,35.66
2023-05-08T20:41:53.459Z,35.63
2023-05-08T20:44:20.424Z,35.44
2023-05-08T20:46:47.774Z,35.12
2023-05-08T20:49:16.829Z,35.17
2023-05-08T20:51:44.180Z,35.64
2023-05-08T20:54:11.856Z,35.46
2023-05-08T20:56:39.834Z,35.30
2023-05-08T20:59:07.284Z,35.69
2023-05-08T21:01:34.435Z,35.86
2023-05-08T21:04:01.911Z,35.39
2023-05-08T21:06:28.985Z,36.39
2023-05-08T21:08:57.467Z,36.48
2023-05-08T21:11:24.966Z,36.12
2023-05-08T21:13:51.988Z,36.55
2023-05-08T21:16:19.713Z,36.29
2023-05-08T21:18:47.121Z,36.86
2023-05-08T21:21:18.067Z,36.63
2023-05-08T21:23:45.420Z,36.29
2023-05-08T21:26:12.801Z,36.34
2023-05-08T21:28:40.514Z,36.28
2023-05-08T21:31:07.453Z,36.42
2023-05-08T21:33:35.042Z,36.24
2023-05-08T21:40:20.952Z,35.65
2023-05-08T21:42:48.386Z,36.15
2023-05-08T21:45:15.891Z,35.45
2023-05-08T21:47:43.397Z,35.81
2023-05-08T21:50:11.097Z,36.14
2023-05-08T21:52:38.402Z,36.13
2023-05-08T21:55:08.284Z,36.04
2023-05-08T21:57:36.013Z,35.92
2023-05-08T22:00:05.403Z,36.26
2023-05-08T22:02:32.898Z,36.19
2023-05-08T22:05:00.304Z,35.82
2023-05-08T22:07:27.414Z,36.42
2023-05-08T22:09:54.414Z,36.30
2023-05-08T22:12:21.619Z,36.51
2023-05-08T22:14:48.853Z,36.35
2023-05-08T22:17:16.119Z,37.00
2023-05-08T22:19:44.077Z,36.18
2023-05-08T22:22:11.188Z,36.58
2023-05-08T22:24:38.460Z,36.39
2023-05-08T22:27:05.853Z,36.13
2023-05-08T22:29:32.796Z,36.30
2023-05-08T22:32:00.019Z,36.58
2023-05-08T22:34:27.310Z,37.57
2023-05-08T22:36:54.373Z,36.85
2023-05-08T22:39:22.263Z,36.80
2023-05-08T22:41:49.420Z,36.34
2023-05-08T22:44:16.538Z,36.01
2023-05-08T22:46:45.929Z,35.43
2023-05-08T22:49:13.250Z,34.35
2023-05-08T22:51:40.608Z,33.61
2023-05-08T22:54:07.921Z,32.49
2023-05-08T22:56:37.836Z,31.50
2023-05-08T22:59:05.817Z,30.60
2023-05-08T23:01:32.952Z,29.43
2023-05-08T23:04:00.175Z,28.77
2023-05-08T23:06:27.917Z,27.62
2023-05-08T23:08:55.670Z,26.55
2023-05-08T23:11:22.684Z,25.35
2023-05-08T23:13:50.264Z,24.80
2023-05-08T23:16:17.342Z,24.06
2023-05-08T23:18:45.075Z,23.08
2023-05-08T23:21:12.577Z,22.02
2023-05-08T23:23:39.577Z,21.50
2023-05-08T23:26:06.986Z,20.96
2023-05-08T23:28:34.964Z,20.52
2023-05-08T23:31:02.738Z,19.61
2023-05-08T23:33:30.324Z,19.13
2023-05-08T23:36:00.758Z,18.69
2023-05-08T23:38:27.885Z,18.12
2023-05-08T23:40:55.426Z,17.35
2023-05-08T23:43:22.511Z,16.94
2023-05-08T23:45:50.503Z,16.40
2023-05-08T23:48:17.824Z,15.92
2023-05-08T23:50:44.904Z,15.19
2023-05-08T23:53:13.105Z,15.14
2023-05-08T23:55:40.342Z,14.73
2023-05-08T23:58:07.688Z,14.37
